Decoded Metar for OMAD (ABU DHABI in UNITED ARAB EMIRATES) (IATA:AZI) | Meteo·Mobile Aviation Weather
aviador You're here:

OMAD Decoded Metar

ABU DHABI in UNITED ARAB EMIRATES
Report Time2018-08-21 12:00:00
UTC Time2018-08-21 12:11:42
Flight Rules mvfr MVFR
Wind340° at 11 kt
W.Decomp.*RWY 31: 9.7 kt HW 5.2 kt RCW
W.Rank340° ranks 1
Current wind is above 340° avg. (7.6)
Visibility5000 m
Phenomena:Widespread Dust
Clouds:N/A
Expected CloudBase > 4,000 ft AGL from Temp-Dew spread
CeilingNone
Temp37°C (ISA +22)
Dew Point27°C (57% RH)
Heat Index49.6°C
QNH0996 hPa
Density Alt3,537 ft
Elevation10 ft
Report Wrong Elevation
Raw Report
METAR OMAD 211200Z 34011KT 320V020 5000 DU NSC 37/27 Q0996 NOSIG=

Extra information for OMAD:More info

Metar Taf Metar & Taf Last 4 Metars F.Rules Stats Wind Profile Meteogram Temp Stats Airport Information Weather charts Add Link Nearby VenuesMetar ALERT Operation Metar Decoded Social comments